Time;durP1;ratioP1;P1;durP2;ratioP2;P2;SDS_P1;SDS_P2;PMS_P1;PMS_P2;Temp;Humidity;BMP_temperature;BMP_pressure;BME280_temperature;BME280_humidity;BME280_pressure;Samples;Min_cycle;Max_cycle;Signal;HPM_P1;HPM_P2
2024/03/24 00:00:24;;;;;;;1.17;0.95;;;3.20;99.90;;;;;;5050063;28;20212;-72
2024/03/24 00:02:50;;;;;;;1.37;1.00;;;3.20;99.90;;;;;;5049334;28;20239;-73
2024/03/24 00:05:17;;;;;;;1.20;0.90;;;3.30;99.90;;;;;;5050073;28;20294;-72
2024/03/24 00:07:44;;;;;;;1.10;0.80;;;3.20;99.90;;;;;;5049335;28;20284;-73
2024/03/24 00:10:10;;;;;;;0.80;0.80;;;3.30;99.90;;;;;;5044766;28;20329;-74
2024/03/24 00:12:38;;;;;;;1.37;0.90;;;3.30;99.90;;;;;;5029120;28;20308;-74
2024/03/24 00:15:04;;;;;;;0.90;0.80;;;3.30;99.90;;;;;;5049005;28;20212;-73
2024/03/24 00:17:31;;;;;;;0.80;0.70;;;3.30;99.90;;;;;;5048065;28;20612;-73
2024/03/24 00:19:56;;;;;;;1.10;1.00;;;3.30;99.90;;;;;;5046157;28;20212;-73
2024/03/24 00:22:23;;;;;;;0.80;0.70;;;3.20;99.90;;;;;;5029219;28;20715;-73
2024/03/24 00:24:49;;;;;;;1.08;0.80;;;3.20;99.90;;;;;;5029191;28;20209;-74
2024/03/24 00:27:16;;;;;;;1.00;0.90;;;3.20;99.90;;;;;;5025991;28;20208;-73
2024/03/24 00:29:43;;;;;;;1.55;1.08;;;3.10;99.90;;;;;;5048528;28;20208;-74
2024/03/24 00:32:11;;;;;;;1.35;0.85;;;3.00;99.90;;;;;;5028668;28;20670;-73
2024/03/24 00:34:37;;;;;;;2.70;1.15;;;3.00;99.90;;;;;;5029190;28;20684;-73
2024/03/24 00:37:04;;;;;;;1.30;1.00;;;3.10;99.90;;;;;;5028723;28;20233;-73
2024/03/24 00:39:30;;;;;;;2.28;0.95;;;3.10;99.90;;;;;;5029002;28;20223;-73
2024/03/24 00:41:56;;;;;;;1.53;1.10;;;3.00;99.90;;;;;;5025758;28;20724;-74
2024/03/24 00:44:22;;;;;;;2.10;0.70;;;3.00;99.90;;;;;;5037440;28;20212;-73
2024/03/24 00:46:51;;;;;;;1.00;0.80;;;2.90;99.90;;;;;;5048491;28;20211;-73
2024/03/24 00:49:16;;;;;;;0.90;0.80;;;3.00;99.90;;;;;;5035095;28;20245;-73
2024/03/24 00:51:43;;;;;;;6.07;1.37;;;3.00;99.90;;;;;;5028200;28;20291;-73
2024/03/24 00:54:09;;;;;;;1.10;1.00;;;2.90;99.90;;;;;;5028129;28;20242;-73
2024/03/24 00:56:36;;;;;;;1.02;0.93;;;2.90;99.90;;;;;;5028717;28;20236;-74
2024/03/24 00:59:01;;;;;;;1.05;0.95;;;2.80;99.90;;;;;;5028310;28;20219;-74
2024/03/24 01:01:28;;;;;;;2.33;0.90;;;2.80;99.90;;;;;;5028068;28;20217;-73
2024/03/24 01:03:55;;;;;;;1.30;0.95;;;2.80;99.90;;;;;;5021962;28;20217;-74
2024/03/24 01:06:22;;;;;;;1.25;1.00;;;2.80;99.90;;;;;;5034339;28;20205;-73
2024/03/24 01:08:48;;;;;;;0.80;0.70;;;2.70;99.90;;;;;;5028279;28;20236;-74
2024/03/24 01:11:14;;;;;;;0.90;0.80;;;2.70;99.90;;;;;;5025002;28;20680;-74
2024/03/24 01:13:40;;;;;;;1.00;0.90;;;2.80;99.90;;;;;;5048010;28;20243;-73
2024/03/24 01:16:07;;;;;;;1.00;0.90;;;2.80;99.90;;;;;;5047777;28;20232;-73
2024/03/24 01:18:33;;;;;;;1.00;0.90;;;2.90;99.90;;;;;;5048046;28;20218;-73
2024/03/24 01:21:02;;;;;;;1.00;0.80;;;2.90;99.90;;;;;;5047726;28;20216;-73
2024/03/24 01:23:27;;;;;;;1.08;0.80;;;2.90;99.90;;;;;;5036589;28;20228;-73
2024/03/24 01:25:54;;;;;;;0.90;0.70;;;3.00;99.90;;;;;;5027953;28;20201;-74
2024/03/24 01:28:20;;;;;;;2.60;0.95;;;3.00;99.90;;;;;;5027767;28;20212;-72
2024/03/24 01:30:47;;;;;;;0.87;0.80;;;3.10;99.90;;;;;;5027544;28;20228;-74
2024/03/24 01:33:12;;;;;;;0.80;0.77;;;3.10;99.90;;;;;;5027508;28;20228;-72
2024/03/24 01:35:46;;;;;;;0.80;0.70;;;3.10;99.90;;;;;;5027824;28;20216;-73
2024/03/24 01:38:13;;;;;;;1.20;0.95;;;3.10;99.90;;;;;;5028088;28;20209;-73
2024/03/24 01:40:47;;;;;;;1.33;1.20;;;3.20;99.90;;;;;;5039446;28;20212;-72
2024/03/24 01:43:12;;;;;;;1.48;1.00;;;3.20;99.90;;;;;;5028047;28;20229;-74
2024/03/24 01:45:39;;;;;;;1.30;0.90;;;3.20;99.90;;;;;;5028064;28;20209;-74
2024/03/24 01:48:06;;;;;;;1.05;0.95;;;3.30;99.90;;;;;;5027757;28;20216;-74
2024/03/24 01:50:33;;;;;;;1.10;1.00;;;3.30;99.90;;;;;;5027709;28;20709;-73
2024/03/24 01:52:59;;;;;;;1.20;0.90;;;3.30;99.90;;;;;;5025772;28;20247;-73
2024/03/24 01:55:27;;;;;;;0.80;0.80;;;3.40;99.90;;;;;;5034299;28;20299;-74
2024/03/24 01:57:53;;;;;;;0.90;0.80;;;3.40;99.90;;;;;;5044402;28;20232;-73
2024/03/24 02:00:20;;;;;;;1.73;1.07;;;3.50;99.90;;;;;;5047417;28;20780;-73
2024/03/24 02:02:45;;;;;;;0.80;0.70;;;3.40;99.90;;;;;;5036723;28;20233;-73
2024/03/24 02:05:12;;;;;;;1.43;1.20;;;3.50;99.90;;;;;;5027561;28;20205;-73
2024/03/24 02:07:38;;;;;;;1.00;0.90;;;3.50;99.90;;;;;;5027577;28;20303;-74
2024/03/24 02:10:05;;;;;;;0.97;0.80;;;3.50;99.90;;;;;;5026934;28;20299;-73
2024/03/24 02:12:32;;;;;;;0.93;0.90;;;3.50;99.90;;;;;;5027618;28;20241;-74
2024/03/24 02:14:59;;;;;;;1.00;0.90;;;3.50;99.90;;;;;;5028028;28;20210;-74
2024/03/24 02:17:24;;;;;;;1.55;1.00;;;3.40;99.90;;;;;;5021529;28;20240;-73
2024/03/24 02:19:51;;;;;;;1.10;1.00;;;3.40;99.90;;;;;;5025913;28;20216;-74
2024/03/24 02:22:18;;;;;;;1.02;0.90;;;3.30;99.90;;;;;;5028063;28;20233;-73
2024/03/24 02:24:46;;;;;;;1.00;0.80;;;3.20;99.90;;;;;;5028273;28;20308;-73
2024/03/24 02:27:11;;;;;;;0.80;0.80;;;3.20;99.90;;;;;;5028126;28;20209;-73
2024/03/24 02:29:38;;;;;;;0.90;0.80;;;3.20;99.90;;;;;;5019679;28;20220;-74
2024/03/24 02:32:05;;;;;;;0.90;0.70;;;3.10;99.90;;;;;;5018589;28;20241;-74
2024/03/24 02:34:32;;;;;;;0.80;0.70;;;3.10;99.90;;;;;;5027496;28;20213;-73
2024/03/24 02:36:58;;;;;;;5.20;1.15;;;3.00;99.90;;;;;;5027194;28;20232;-73
2024/03/24 02:39:25;;;;;;;1.00;0.90;;;3.00;99.90;;;;;;5026064;28;21073;-74
2024/03/24 02:41:52;;;;;;;1.10;0.95;;;3.00;99.90;;;;;;5050387;28;20220;-73
2024/03/24 02:44:19;;;;;;;5.40;0.85;;;3.00;99.90;;;;;;5051223;28;20247;-73
2024/03/24 02:46:44;;;;;;;0.70;0.68;;;2.90;99.90;;;;;;5052317;28;20364;-74
2024/03/24 02:49:11;;;;;;;0.80;0.70;;;2.90;99.90;;;;;;5051973;28;20303;-74
2024/03/24 02:51:37;;;;;;;1.00;0.90;;;2.90;99.90;;;;;;5054601;28;20205;-74
2024/03/24 02:54:03;;;;;;;0.80;0.80;;;2.90;99.90;;;;;;5054765;28;20210;-74
2024/03/24 02:56:30;;;;;;;1.63;1.00;;;2.80;99.90;;;;;;5054789;28;20604;-73
2024/03/24 02:58:58;;;;;;;1.65;0.90;;;2.80;99.90;;;;;;5043655;28;20219;-73
2024/03/24 03:01:24;;;;;;;1.30;0.95;;;2.70;99.90;;;;;;5034116;28;20677;-73
2024/03/24 03:03:52;;;;;;;1.20;0.80;;;2.60;99.90;;;;;;5032376;28;20215;-74
2024/03/24 03:06:18;;;;;;;0.80;0.70;;;2.60;99.90;;;;;;5041784;28;20310;-73
2024/03/24 03:08:45;;;;;;;0.80;0.70;;;2.50;99.90;;;;;;5054261;28;20209;-74
2024/03/24 03:11:11;;;;;;;2.03;0.80;;;2.50;99.90;;;;;;5053677;28;20878;-73
2024/03/24 03:13:37;;;;;;;0.70;0.60;;;2.40;99.90;;;;;;5053789;28;20224;-73
2024/03/24 03:16:05;;;;;;;5.97;0.95;;;2.40;99.90;;;;;;5042201;28;20212;-74
2024/03/24 03:18:32;;;;;;;0.80;0.80;;;2.40;99.90;;;;;;5034000;28;20219;-74
2024/03/24 03:20:58;;;;;;;0.80;0.80;;;2.40;99.90;;;;;;5033540;28;20212;-74
2024/03/24 03:23:25;;;;;;;1.03;0.80;;;2.40;99.90;;;;;;5033832;28;20227;-74
2024/03/24 03:25:52;;;;;;;1.13;1.02;;;2.40;99.90;;;;;;5033569;28;20315;-74
2024/03/24 03:28:19;;;;;;;1.20;1.00;;;2.40;99.90;;;;;;5033769;28;20703;-73
2024/03/24 03:30:45;;;;;;;1.10;0.85;;;2.50;99.90;;;;;;5033709;28;20204;-73
2024/03/24 03:33:13;;;;;;;0.90;0.80;;;2.50;99.90;;;;;;5033393;28;20233;-73
2024/03/24 03:35:39;;;;;;;0.80;0.70;;;2.50;99.90;;;;;;5033752;28;20208;-74
2024/03/24 03:38:05;;;;;;;0.80;0.80;;;2.50;99.90;;;;;;5025318;28;20229;-74
2024/03/24 03:40:31;;;;;;;1.00;0.90;;;2.50;99.90;;;;;;5033344;28;20209;-74
2024/03/24 03:42:58;;;;;;;1.20;1.03;;;2.60;99.90;;;;;;5032996;28;20236;-74
2024/03/24 03:45:25;;;;;;;1.08;0.80;;;2.60;99.90;;;;;;5033691;28;20584;-74
2024/03/24 03:47:52;;;;;;;0.80;0.70;;;2.60;99.90;;;;;;5033331;28;20203;-74
2024/03/24 03:50:20;;;;;;;1.30;1.20;;;2.70;99.90;;;;;;5032765;28;20213;-74
2024/03/24 03:52:48;;;;;;;0.90;0.80;;;2.70;99.90;;;;;;5032991;28;20223;-74
2024/03/24 03:55:15;;;;;;;0.80;0.70;;;2.70;99.90;;;;;;5033041;28;20214;-74
2024/03/24 03:57:41;;;;;;;0.80;0.70;;;2.80;99.90;;;;;;5033054;28;20714;-73
2024/03/24 04:00:10;;;;;;;0.90;0.77;;;2.80;99.90;;;;;;5032865;28;20551;-73
2024/03/24 04:02:38;;;;;;;3.30;1.63;;;2.80;99.90;;;;;;5032770;28;20274;-73
2024/03/24 04:05:04;;;;;;;2.00;0.80;;;2.80;99.90;;;;;;5049483;28;20209;-73
2024/03/24 04:07:35;;;;;;;0.80;0.70;;;2.80;99.90;;;;;;5033208;28;20259;-73
2024/03/24 04:10:00;;;;;;;0.90;0.80;;;2.80;99.90;;;;;;5032585;28;20208;-74
2024/03/24 04:12:27;;;;;;;1.77;0.90;;;2.80;99.90;;;;;;5032700;28;20228;-74
2024/03/24 04:14:54;;;;;;;1.13;1.02;;;2.80;99.90;;;;;;5033007;28;20585;-74
2024/03/24 04:17:21;;;;;;;0.82;0.80;;;2.80;99.90;;;;;;5032723;28;20228;-74
2024/03/24 04:19:47;;;;;;;0.80;0.70;;;2.80;99.90;;;;;;5032920;28;20208;-74
2024/03/24 04:22:13;;;;;;;0.80;0.70;;;2.80;99.90;;;;;;5032358;28;20279;-73
2024/03/24 04:24:40;;;;;;;1.00;0.90;;;2.80;99.90;;;;;;5032813;28;20464;-74
2024/03/24 04:27:07;;;;;;;1.25;1.05;;;2.80;99.90;;;;;;5032650;28;20661;-74
2024/03/24 04:29:33;;;;;;;1.13;0.90;;;2.80;99.90;;;;;;5032783;28;20212;-74
2024/03/24 04:31:59;;;;;;;0.90;0.77;;;2.80;99.90;;;;;;5031997;28;20245;-73
2024/03/24 04:34:25;;;;;;;0.90;0.80;;;2.80;99.90;;;;;;5032339;28;20208;-74
2024/03/24 04:36:52;;;;;;;1.20;1.07;;;2.80;99.90;;;;;;5032375;28;20225;-73
2024/03/24 04:39:19;;;;;;;2.03;0.90;;;2.80;99.90;;;;;;5032233;28;20663;-74
2024/03/24 04:41:47;;;;;;;3.03;0.95;;;2.80;99.90;;;;;;5032953;28;20232;-74
2024/03/24 04:44:14;;;;;;;1.48;0.90;;;2.80;99.90;;;;;;5052119;28;20216;-74
2024/03/24 04:46:40;;;;;;;0.85;0.70;;;2.80;99.90;;;;;;5052163;28;20211;-73
2024/03/24 04:49:07;;;;;;;1.00;0.73;;;2.70;99.90;;;;;;5052094;28;20209;-74
2024/03/24 04:51:33;;;;;;;0.80;0.75;;;2.70;99.90;;;;;;5051766;28;20219;-74
2024/03/24 04:54:02;;;;;;;1.45;1.00;;;2.70;99.90;;;;;;5051698;28;20222;-74
2024/03/24 04:56:28;;;;;;;0.80;0.70;;;2.70;99.90;;;;;;5051962;28;20247;-73
2024/03/24 04:58:56;;;;;;;1.20;0.93;;;2.70;99.90;;;;;;5051860;28;20212;-73
2024/03/24 05:01:22;;;;;;;0.80;0.80;;;2.70;99.90;;;;;;5051337;28;20729;-74
2024/03/24 05:03:49;;;;;;;0.80;0.75;;;2.80;99.90;;;;;;5050806;28;20232;-74
2024/03/24 05:06:15;;;;;;;2.17;0.98;;;2.80;99.90;;;;;;5051185;28;20304;-74
2024/03/24 05:08:42;;;;;;;0.80;0.70;;;2.80;99.90;;;;;;5051771;28;20291;-74
2024/03/24 05:11:09;;;;;;;0.80;0.80;;;2.80;99.90;;;;;;5051538;28;20217;-74
2024/03/24 05:13:36;;;;;;;2.15;0.98;;;2.70;99.90;;;;;;5051453;28;20712;-74
2024/03/24 05:16:07;;;;;;;1.65;1.27;;;2.70;99.90;;;;;;5051458;28;20224;-74
2024/03/24 05:18:36;;;;;;;0.85;0.77;;;2.70;99.90;;;;;;5051617;28;20234;-74
2024/03/24 05:21:02;;;;;;;0.80;0.70;;;2.70;99.90;;;;;;5051117;28;20239;-73
2024/03/24 05:23:28;;;;;;;2.20;0.80;;;2.60;99.90;;;;;;5051291;28;20328;-73
2024/03/24 05:25:54;;;;;;;1.02;0.70;;;2.60;99.90;;;;;;5051281;28;20678;-74
2024/03/24 05:28:21;;;;;;;2.33;1.20;;;2.50;99.90;;;;;;5051474;28;20200;-73
2024/03/24 05:30:49;;;;;;;1.55;0.80;;;2.50;99.90;;;;;;5051012;28;20207;-74
2024/03/24 05:33:18;;;;;;;0.82;0.80;;;2.50;99.90;;;;;;5050975;28;20335;-74
2024/03/24 05:35:44;;;;;;;0.80;0.70;;;2.50;99.90;;;;;;5051344;28;20227;-73
2024/03/24 05:38:11;;;;;;;1.40;0.85;;;2.60;99.90;;;;;;5051293;28;20232;-73
2024/03/24 05:40:37;;;;;;;1.27;0.70;;;2.60;99.90;;;;;;5051122;28;20215;-74
2024/03/24 05:43:05;;;;;;;0.93;0.70;;;2.60;99.90;;;;;;5050635;28;20243;-74
2024/03/24 05:45:34;;;;;;;0.90;0.70;;;2.50;99.90;;;;;;5051120;28;20665;-73
2024/03/24 05:48:00;;;;;;;2.55;1.10;;;2.50;99.90;;;;;;5051027;28;20215;-73
2024/03/24 05:50:27;;;;;;;1.00;0.88;;;2.50;99.90;;;;;;5051131;28;20292;-74
2024/03/24 05:52:54;;;;;;;1.35;1.15;;;2.50;99.90;;;;;;5050687;28;20277;-74
2024/03/24 05:55:20;;;;;;;2.05;1.45;;;2.50;99.90;;;;;;5051070;28;20223;-73
2024/03/24 05:57:47;;;;;;;0.73;0.67;;;2.50;99.90;;;;;;5050961;28;20227;-74
2024/03/24 06:00:15;;;;;;;1.00;0.90;;;2.50;99.90;;;;;;5050579;28;20219;-74
2024/03/24 06:02:42;;;;;;;0.80;0.70;;;2.50;99.90;;;;;;5050618;28;20227;-73
2024/03/24 06:05:09;;;;;;;1.15;0.70;;;2.50;99.90;;;;;;5050869;28;20211;-74
2024/03/24 06:07:37;;;;;;;0.90;0.77;;;2.50;99.90;;;;;;5051147;28;20632;-74
2024/03/24 06:10:03;;;;;;;0.90;0.80;;;2.50;99.90;;;;;;5050489;28;20203;-73
2024/03/24 06:12:30;;;;;;;0.90;0.80;;;2.50;99.90;;;;;;5050540;28;20224;-73
2024/03/24 06:14:56;;;;;;;0.73;0.65;;;2.50;99.90;;;;;;5053768;28;20207;-73
2024/03/24 06:17:22;;;;;;;0.80;0.67;;;2.50;99.90;;;;;;5054995;28;20287;-73
2024/03/24 06:19:48;;;;;;;1.23;0.90;;;2.50;99.90;;;;;;5054488;28;20208;-72
2024/03/24 06:22:15;;;;;;;0.80;0.80;;;2.70;99.90;;;;;;5054600;28;20239;-73
2024/03/24 06:24:42;;;;;;;1.27;1.00;;;2.80;99.90;;;;;;5054917;28;20623;-73
2024/03/24 06:27:08;;;;;;;0.98;0.70;;;2.80;99.90;;;;;;5054793;28;20204;-73
2024/03/24 06:29:34;;;;;;;1.00;0.90;;;2.90;99.90;;;;;;5054560;28;20582;-73
2024/03/24 06:32:01;;;;;;;1.00;0.73;;;2.90;99.90;;;;;;5054342;28;20221;-73
2024/03/24 06:34:27;;;;;;;1.00;0.80;;;2.90;99.90;;;;;;5054830;28;20553;-73
2024/03/24 06:36:54;;;;;;;0.80;0.70;;;2.90;99.90;;;;;;5044347;28;20244;-73
2024/03/24 06:39:20;;;;;;;0.95;0.85;;;3.00;99.90;;;;;;5034699;28;20460;-72
2024/03/24 06:41:49;;;;;;;1.10;1.00;;;3.10;99.90;;;;;;5034054;28;20225;-73
2024/03/24 06:44:17;;;;;;;1.20;1.10;;;3.20;99.90;;;;;;5034563;28;20266;-74
2024/03/24 06:46:44;;;;;;;2.75;1.00;;;3.30;99.90;;;;;;5034523;28;20240;-73
2024/03/24 06:49:11;;;;;;;1.10;0.90;;;3.50;99.90;;;;;;5034373;28;20240;-72
2024/03/24 06:51:36;;;;;;;0.93;0.75;;;3.70;99.90;;;;;;5034233;28;20208;-74
2024/03/24 06:54:03;;;;;;;1.00;0.90;;;3.90;99.90;;;;;;5033665;28;20211;-73
2024/03/24 06:56:30;;;;;;;1.00;0.90;;;4.10;99.90;;;;;;5034455;28;20232;-73
2024/03/24 06:58:57;;;;;;;1.08;0.98;;;4.30;99.90;;;;;;5033844;28;20226;-74
2024/03/24 07:01:24;;;;;;;0.90;0.77;;;4.40;99.90;;;;;;5034077;28;20206;-73
2024/03/24 07:03:49;;;;;;;1.13;1.02;;;4.50;99.90;;;;;;5033971;28;20226;-74
2024/03/24 07:06:16;;;;;;;1.40;0.97;;;4.60;99.90;;;;;;5034124;28;20670;-74
2024/03/24 07:08:42;;;;;;;1.45;1.08;;;4.70;99.90;;;;;;5034112;28;20213;-74
2024/03/24 07:11:09;;;;;;;1.50;1.40;;;4.90;99.90;;;;;;5033674;28;20201;-74
2024/03/24 07:13:34;;;;;;;1.02;0.80;;;5.00;99.90;;;;;;5033585;28;20239;-74
2024/03/24 07:16:02;;;;;;;0.80;0.70;;;5.10;99.90;;;;;;5033836;28;20201;-75
2024/03/24 07:18:28;;;;;;;2.28;1.17;;;5.30;99.90;;;;;;5033988;28;20234;-74
2024/03/24 07:20:59;;;;;;;2.13;0.90;;;5.50;99.90;;;;;;5033104;28;20209;-75
2024/03/24 07:23:25;;;;;;;1.10;0.80;;;5.60;99.90;;;;;;5033595;28;20607;-74
2024/03/24 07:25:52;;;;;;;1.33;1.23;;;5.60;99.90;;;;;;5033570;28;20206;-74
2024/03/24 07:28:18;;;;;;;1.10;1.00;;;5.70;99.90;;;;;;5033698;28;20526;-74
2024/03/24 07:30:45;;;;;;;0.90;0.70;;;5.80;99.90;;;;;;5033315;28;20228;-74
2024/03/24 07:33:13;;;;;;;1.00;0.90;;;6.20;99.90;;;;;;5033356;28;20476;-74
2024/03/24 07:35:40;;;;;;;0.93;0.82;;;6.50;99.90;;;;;;5033558;28;20214;-74
2024/03/24 07:38:06;;;;;;;1.75;1.25;;;6.80;99.90;;;;;;5033314;28;20229;-75
2024/03/24 07:40:33;;;;;;;1.27;1.07;;;6.90;99.90;;;;;;5033480;28;20580;-74
2024/03/24 07:42:59;;;;;;;1.40;1.27;;;7.20;99.90;;;;;;5032822;28;20230;-74
2024/03/24 07:45:25;;;;;;;1.13;1.03;;;7.70;99.90;;;;;;5033438;28;20212;-75
2024/03/24 07:47:51;;;;;;;1.10;1.00;;;8.00;99.90;;;;;;5033340;28;20460;-74
2024/03/24 07:50:19;;;;;;;2.50;0.90;;;8.60;99.90;;;;;;5033216;28;20200;-74
2024/03/24 07:52:45;;;;;;;0.95;0.85;;;8.80;99.90;;;;;;5032891;28;20319;-73
2024/03/24 07:55:12;;;;;;;0.90;0.77;;;9.10;99.90;;;;;;5027039;28;20379;-75
2024/03/24 07:57:38;;;;;;;1.10;1.00;;;9.00;99.90;;;;;;5016578;28;20240;-74
2024/03/24 08:00:07;;;;;;;1.80;0.80;;;8.90;99.90;;;;;;5024633;28;20208;-75
2024/03/24 08:02:33;;;;;;;1.30;1.20;;;8.70;99.90;;;;;;5031334;28;20461;-74
2024/03/24 08:04:59;;;;;;;1.33;1.23;;;8.60;99.90;;;;;;5030134;28;20522;-74
2024/03/24 08:07:27;;;;;;;1.15;0.80;;;9.10;99.90;;;;;;5031329;28;20194;-74
2024/03/24 08:09:53;;;;;;;2.15;1.10;;;9.60;99.90;;;;;;5041693;28;20302;-74
2024/03/24 08:12:20;;;;;;;0.93;0.82;;;9.80;99.90;;;;;;5037716;28;20225;-74
2024/03/24 08:14:47;;;;;;;1.35;0.90;;;10.10;99.90;;;;;;5032118;28;20210;-75
2024/03/24 08:17:13;;;;;;;1.00;0.85;;;10.80;99.90;;;;;;5024305;28;20225;-74
2024/03/24 08:19:40;;;;;;;1.52;0.82;;;10.80;99.90;;;;;;5031930;28;20574;-75
2024/03/24 08:22:05;;;;;;;1.17;0.80;;;10.70;99.90;;;;;;5028455;28;20233;-75
2024/03/24 08:24:33;;;;;;;1.30;1.00;;;10.70;99.90;;;;;;5032851;28;20206;-75
2024/03/24 08:26:59;;;;;;;1.10;0.93;;;11.30;99.90;;;;;;5031400;28;20210;-74
2024/03/24 08:29:26;;;;;;;1.20;1.10;;;11.80;99.90;;;;;;5026896;28;20718;-75
2024/03/24 08:31:52;;;;;;;2.20;1.00;;;12.10;99.90;;;;;;5038019;28;20226;-75
2024/03/24 08:34:18;;;;;;;2.50;1.20;;;12.30;99.90;;;;;;5032143;28;20833;-74
2024/03/24 08:36:44;;;;;;;1.00;0.90;;;12.30;99.50;;;;;;5023903;28;20211;-74
2024/03/24 08:39:11;;;;;;;2.63;1.13;;;12.10;99.40;;;;;;5032718;28;20308;-74
2024/03/24 08:41:39;;;;;;;1.58;1.00;;;12.00;99.20;;;;;;5025167;28;20230;-76
2024/03/24 08:44:06;;;;;;;1.70;0.90;;;12.20;99.90;;;;;;5023670;28;20214;-75
2024/03/24 08:46:32;;;;;;;1.20;0.98;;;12.30;98.60;;;;;;5026353;28;20218;-75
2024/03/24 08:48:58;;;;;;;1.00;0.90;;;11.70;98.90;;;;;;5026939;28;20198;-75
2024/03/24 08:51:25;;;;;;;2.35;0.98;;;10.90;99.70;;;;;;5021366;28;20210;-74
2024/03/24 08:53:53;;;;;;;5.35;1.27;;;10.30;99.90;;;;;;5010677;28;20244;-75
2024/03/24 08:56:20;;;;;;;1.38;1.10;;;9.70;99.90;;;;;;5012576;28;20574;-74
2024/03/24 08:58:48;;;;;;;1.00;0.82;;;9.10;99.90;;;;;;5033767;28;20707;-75
2024/03/24 09:01:13;;;;;;;2.55;1.20;;;9.00;99.90;;;;;;5030611;28;20207;-75
2024/03/24 09:03:40;;;;;;;1.30;1.00;;;8.90;99.90;;;;;;5031596;28;20243;-75
2024/03/24 09:06:06;;;;;;;1.95;1.27;;;8.80;99.90;;;;;;5032278;28;20210;-75
2024/03/24 09:08:33;;;;;;;2.80;1.70;;;8.80;99.90;;;;;;5032023;28;20740;-75
2024/03/24 09:10:59;;;;;;;1.15;1.00;;;8.50;99.90;;;;;;5031451;28;20196;-75
2024/03/24 09:13:25;;;;;;;3.07;1.50;;;8.10;99.90;;;;;;5030992;28;20848;-75
2024/03/24 09:15:52;;;;;;;1.70;1.30;;;7.70;99.90;;;;;;5027557;28;20209;-74
2024/03/24 09:18:19;;;;;;;1.30;0.93;;;7.60;99.90;;;;;;5027407;28;20594;-75
2024/03/24 09:20:45;;;;;;;1.17;1.08;;;7.50;99.90;;;;;;5026004;28;20234;-74
2024/03/24 09:23:11;;;;;;;1.77;1.53;;;7.30;99.90;;;;;;5025883;28;20699;-75
2024/03/24 09:25:38;;;;;;;1.20;0.90;;;7.10;99.90;;;;;;5030919;28;20210;-75
2024/03/24 09:28:05;;;;;;;1.60;1.20;;;6.90;99.90;;;;;;5032120;28;20588;-75
2024/03/24 09:30:31;;;;;;;1.90;0.95;;;6.70;99.90;;;;;;5030984;28;20202;-75
2024/03/24 09:32:59;;;;;;;1.15;0.80;;;6.70;99.90;;;;;;5029683;28;20224;-75
2024/03/24 09:35:25;;;;;;;1.67;1.40;;;6.80;99.90;;;;;;5037367;28;20282;-75
2024/03/24 09:37:52;;;;;;;1.43;1.30;;;6.80;99.90;;;;;;5042165;28;20237;-74
2024/03/24 09:40:18;;;;;;;1.27;1.17;;;6.90;99.90;;;;;;5047256;28;20205;-74
2024/03/24 09:42:46;;;;;;;1.27;1.17;;;6.90;99.90;;;;;;5042948;28;20213;-74
2024/03/24 09:45:17;;;;;;;1.42;0.98;;;6.80;99.90;;;;;;5037667;28;20460;-75
2024/03/24 09:47:46;;;;;;;2.05;1.20;;;6.90;99.90;;;;;;5038071;28;20251;-75
2024/03/24 09:50:14;;;;;;;2.67;1.25;;;6.90;99.90;;;;;;5048572;28;20674;-75
2024/03/24 09:52:43;;;;;;;1.73;1.35;;;6.80;99.90;;;;;;5044898;28;20222;-75
2024/03/24 09:55:15;;;;;;;2.15;1.67;;;6.70;99.90;;;;;;5031480;28;20214;-76
2024/03/24 09:57:43;;;;;;;3.00;1.27;;;6.60;99.90;;;;;;5022917;28;20313;-75
2024/03/24 10:00:11;;;;;;;9.07;1.48;;;6.60;99.90;;;;;;5047656;28;20579;-75
2024/03/24 10:02:38;;;;;;;4.05;1.00;;;6.60;99.90;;;;;;5044988;28;20301;-75
2024/03/24 10:05:05;;;;;;;1.45;1.25;;;6.60;99.90;;;;;;5047710;28;20201;-76
2024/03/24 10:07:33;;;;;;;1.60;1.50;;;6.70;99.90;;;;;;5046077;28;20197;-76
2024/03/24 10:09:59;;;;;;;3.58;1.60;;;6.70;99.90;;;;;;5030094;28;20211;-76
2024/03/24 10:12:25;;;;;;;1.40;1.00;;;6.80;99.90;;;;;;5028776;28;20694;-75
2024/03/24 10:14:51;;;;;;;1.38;1.05;;;6.90;99.90;;;;;;5030651;28;20465;-75
2024/03/24 10:17:19;;;;;;;1.00;0.90;;;7.10;99.90;;;;;;5047092;28;20677;-75
2024/03/24 10:19:46;;;;;;;2.00;1.02;;;7.10;99.90;;;;;;5039710;28;20464;-75
2024/03/24 10:22:13;;;;;;;1.77;1.20;;;6.90;99.90;;;;;;5040958;28;20657;-75
2024/03/24 10:24:45;;;;;;;3.97;1.20;;;6.80;99.90;;;;;;5029841;28;20293;-75
2024/03/24 10:27:13;;;;;;;2.63;1.23;;;6.90;99.90;;;;;;5034374;28;20654;-75
2024/03/24 10:29:39;;;;;;;2.67;1.40;;;6.90;99.90;;;;;;5047242;28;20202;-76
2024/03/24 10:32:10;;;;;;;1.63;1.10;;;7.20;99.90;;;;;;5031908;28;20317;-76
2024/03/24 10:34:36;;;;;;;2.08;1.00;;;8.00;99.90;;;;;;5048484;28;20462;-76
2024/03/24 10:37:03;;;;;;;1.20;1.00;;;8.60;99.90;;;;;;5047636;28;20196;-76
2024/03/24 10:39:30;;;;;;;2.40;1.58;;;9.10;99.90;;;;;;5048982;28;20223;-76
2024/03/24 10:42:04;;;;;;;1.20;1.00;;;9.40;99.90;;;;;;5044806;28;20216;-75
2024/03/24 10:44:31;;;;;;;2.53;1.35;;;9.80;99.90;;;;;;5029883;28;20205;-74
2024/03/24 10:46:58;;;;;;;1.00;0.90;;;10.70;99.90;;;;;;5029086;28;20214;-74
2024/03/24 10:49:26;;;;;;;2.05;1.33;;;11.40;99.90;;;;;;5030215;28;20190;-74
2024/03/24 10:51:56;;;;;;;2.75;1.20;;;11.90;99.70;;;;;;5028697;28;20613;-74
2024/03/24 10:54:22;;;;;;;1.20;1.10;;;12.10;99.30;;;;;;5023699;28;20671;-74
2024/03/24 10:56:49;;;;;;;1.75;1.17;;;12.00;99.60;;;;;;5041467;28;20198;-77
2024/03/24 10:59:20;;;;;;;1.88;1.35;;;11.60;99.20;;;;;;5042382;28;20217;-74
2024/03/24 11:01:47;;;;;;;6.90;1.25;;;11.10;99.40;;;;;;5049676;28;20225;-75
2024/03/24 11:04:13;;;;;;;3.47;1.33;;;10.80;99.40;;;;;;5041256;28;20581;-75
2024/03/24 11:06:42;;;;;;;1.25;1.00;;;10.70;99.80;;;;;;5023353;28;20202;-75
2024/03/24 11:09:08;;;;;;;1.45;1.35;;;11.40;99.20;;;;;;5029133;28;20208;-75
2024/03/24 11:11:36;;;;;;;3.15;1.30;;;11.80;98.50;;;;;;5052636;28;20207;-75
2024/03/24 11:14:04;;;;;;;1.88;1.50;;;11.90;98.40;;;;;;5036674;28;20200;-75
2024/03/24 11:16:32;;;;;;;1.85;1.25;;;11.40;98.70;;;;;;5022841;28;20279;-75
2024/03/24 11:19:04;;;;;;;1.45;1.17;;;10.70;99.10;;;;;;5030062;28;20234;-75
2024/03/24 11:21:34;;;;;;;1.60;1.30;;;10.10;99.90;;;;;;5053101;28;20207;-75
2024/03/24 11:24:00;;;;;;;1.52;1.23;;;9.90;99.90;;;;;;5045219;28;20206;-75
2024/03/24 11:26:29;;;;;;;1.45;1.35;;;9.50;99.90;;;;;;5051089;28;20296;-74
2024/03/24 11:28:55;;;;;;;1.67;1.35;;;9.00;99.90;;;;;;5051225;28;20223;-74
2024/03/24 11:31:37;;;;;;;1.75;1.20;;;8.60;99.90;;;;;;5051484;28;20254;-75
2024/03/24 11:34:07;;;;;;;1.50;1.30;;;8.10;99.90;;;;;;5052058;28;20200;-74
2024/03/24 11:36:37;;;;;;;1.45;1.25;;;7.80;99.90;;;;;;5050510;28;20197;-74
2024/03/24 11:39:04;;;;;;;2.22;1.30;;;7.50;99.90;;;;;;5049236;28;20587;-75
2024/03/24 11:41:31;;;;;;;3.30;1.48;;;7.40;99.90;;;;;;5031166;28;20223;-75
2024/03/24 11:43:59;;;;;;;1.52;1.23;;;7.80;99.90;;;;;;5031482;28;20208;-75
2024/03/24 11:46:27;;;;;;;1.20;0.93;;;8.40;99.90;;;;;;5032668;28;20200;-74
2024/03/24 11:48:56;;;;;;;2.10;1.05;;;8.70;99.90;;;;;;5030532;28;20576;-74
2024/03/24 11:51:23;;;;;;;1.20;1.10;;;8.70;99.90;;;;;;5032880;28;20201;-74
2024/03/24 11:53:51;;;;;;;1.55;1.40;;;8.50;99.90;;;;;;5030450;28;20615;-75
2024/03/24 11:56:18;;;;;;;1.08;0.98;;;8.50;99.90;;;;;;5031779;28;20204;-75
2024/03/24 11:58:47;;;;;;;2.25;1.80;;;8.30;99.90;;;;;;5029636;28;20232;-75
2024/03/24 12:01:14;;;;;;;1.40;1.30;;;8.00;99.90;;;;;;5032427;28;20199;-75
2024/03/24 12:03:39;;;;;;;1.73;1.10;;;7.70;99.90;;;;;;5029804;28;20235;-75
2024/03/24 12:06:08;;;;;;;1.13;0.97;;;7.50;99.90;;;;;;5033116;28;20200;-75
2024/03/24 12:08:35;;;;;;;1.38;1.10;;;7.30;99.90;;;;;;5032552;28;20206;-75
2024/03/24 12:11:02;;;;;;;1.73;1.42;;;7.20;99.90;;;;;;5029192;28;20204;-75
2024/03/24 12:13:28;;;;;;;1.55;1.30;;;7.00;99.90;;;;;;5031403;28;20223;-75
2024/03/24 12:15:54;;;;;;;1.20;1.10;;;7.00;99.90;;;;;;5029978;28;20746;-75
2024/03/24 12:18:20;;;;;;;2.22;1.25;;;7.00;99.90;;;;;;5031097;28;20597;-75
2024/03/24 12:20:48;;;;;;;2.27;1.00;;;7.00;99.90;;;;;;5031462;28;20253;-75
2024/03/24 12:23:16;;;;;;;1.40;1.00;;;6.80;99.90;;;;;;5031000;28;20255;-76
2024/03/24 12:25:46;;;;;;;1.48;1.15;;;6.70;99.90;;;;;;5029119;28;20210;-76
2024/03/24 12:28:16;;;;;;;1.80;1.15;;;6.60;99.90;;;;;;5024624;28;20203;-75
2024/03/24 12:30:49;;;;;;;2.10;1.08;;;6.50;99.90;;;;;;5030162;28;20202;-75
2024/03/24 12:33:17;;;;;;;1.38;1.10;;;6.50;99.90;;;;;;5031982;28;20220;-75
2024/03/24 12:35:43;;;;;;;1.35;1.25;;;6.70;99.90;;;;;;5032280;28;20290;-75
2024/03/24 12:38:09;;;;;;;2.00;1.38;;;6.80;99.90;;;;;;5030989;28;20223;-76
2024/03/24 12:40:38;;;;;;;1.97;1.20;;;6.80;99.90;;;;;;5029821;28;20202;-76
2024/03/24 12:43:13;;;;;;;1.20;1.10;;;6.80;99.90;;;;;;5029951;28;20512;-75
2024/03/24 12:45:50;;;;;;;1.88;1.40;;;6.90;99.90;;;;;;5030165;28;20205;-76
2024/03/24 12:48:17;;;;;;;3.25;1.40;;;7.00;99.90;;;;;;5028407;28;20202;-76
2024/03/24 12:50:44;;;;;;;1.50;1.10;;;7.10;99.90;;;;;;5028295;28;20296;-75
2024/03/24 12:53:23;;;;;;;1.08;0.98;;;7.20;99.90;;;;;;5026339;28;20218;-75